Terminal Aerodrome Forecast
Issued by NWS

Home | Current Version | Previous Version | Text Only | Print | Product List | Glossary Off
Versions: 1 2 3 4 5 6 7 8 9 10 11 12 13 14 15 16 17 18 19 20

699
FTUS43 KFGF 021704 AAB
TAFBJI
TAF AMD
KBJI 021704Z 0217/0312 31007KT P6SM OVC009
     FM030300 VRB03KT P6SM BKN020=

USA.gov is the U.S. government's official web portal to all federal, state and local government web resources and services.